createdAt,value
2019-06-20T00:01:12.776Z,16.69
2019-06-20T00:03:46.621Z,16.75
2019-06-20T00:06:19.672Z,16.77
2019-06-20T00:08:52.859Z,16.80
2019-06-20T00:11:25.457Z,16.83
2019-06-20T00:13:58.190Z,16.87
2019-06-20T00:16:31.101Z,16.90
2019-06-20T00:19:03.954Z,16.94
2019-06-20T00:21:37.101Z,16.98
2019-06-20T00:24:11.339Z,17.02
2019-06-20T00:26:43.677Z,17.07
2019-06-20T00:29:16.179Z,17.10
2019-06-20T00:31:48.895Z,17.14
2019-06-20T00:34:23.666Z,17.18
2019-06-20T00:36:56.876Z,17.20
2019-06-20T00:39:29.468Z,17.18
2019-06-20T00:42:02.297Z,17.17
2019-06-20T00:44:34.797Z,17.14
2019-06-20T00:47:07.417Z,17.13
2019-06-20T00:49:40.268Z,17.14
2019-06-20T00:52:13.106Z,17.12
2019-06-20T00:54:45.612Z,17.14
2019-06-20T00:57:18.683Z,17.14
2019-06-20T00:59:51.455Z,17.09
2019-06-20T01:02:24.066Z,17.03
2019-06-20T01:04:57.720Z,17.00
2019-06-20T01:07:30.408Z,16.96
2019-06-20T01:10:03.900Z,16.99
2019-06-20T01:12:37.595Z,17.10
2019-06-20T01:15:13.141Z,17.18
2019-06-20T01:17:45.863Z,17.25
2019-06-20T01:20:19.219Z,17.29
2019-06-20T01:22:52.173Z,17.32
2019-06-20T01:25:45.572Z,17.32
2019-06-20T01:28:18.239Z,17.34
2019-06-20T01:30:50.746Z,17.35
2019-06-20T01:33:25.652Z,17.37
2019-06-20T01:35:58.200Z,17.40
2019-06-20T01:38:30.720Z,17.41
2019-06-20T01:41:06.220Z,17.41
2019-06-20T01:43:50.110Z,17.43
2019-06-20T01:46:23.797Z,17.43
2019-06-20T01:48:56.580Z,17.41
2019-06-20T01:51:29.075Z,17.40
2019-06-20T01:54:01.479Z,17.38
2019-06-20T01:56:34.077Z,17.37
2019-06-20T01:59:06.478Z,17.37
2019-06-20T02:01:44.328Z,17.36
2019-06-20T02:04:21.781Z,17.36
2019-06-20T02:06:59.271Z,17.38
2019-06-20T02:09:38.451Z,17.37
2019-06-20T02:12:15.945Z,17.39
2019-06-20T02:14:53.543Z,17.36
2019-06-20T02:17:31.260Z,17.35
2019-06-20T02:20:04.715Z,17.34
2019-06-20T02:22:37.168Z,17.32
2019-06-20T02:25:10.775Z,17.31
2019-06-20T02:27:43.203Z,17.29
2019-06-20T02:30:17.687Z,17.28
2019-06-20T02:32:50.413Z,17.26
2019-06-20T02:35:23.048Z,17.24
2019-06-20T02:37:55.659Z,17.22
2019-06-20T02:40:28.693Z,17.19
2019-06-20T02:43:01.331Z,17.17
2019-06-20T02:45:39.503Z,17.16
2019-06-20T02:48:12.105Z,17.14
2019-06-20T02:50:44.629Z,17.12
2019-06-20T02:53:22.737Z,17.14
2019-06-20T02:56:00.954Z,17.13
2019-06-20T02:58:34.095Z,17.12
2019-06-20T03:01:06.944Z,17.10
2019-06-20T03:03:39.526Z,17.09
2019-06-20T03:06:11.886Z,17.07
2019-06-20T03:08:45.911Z,17.09
2019-06-20T03:11:18.671Z,17.07
2019-06-20T03:13:53.047Z,17.06
2019-06-20T03:16:25.947Z,17.05
2019-06-20T03:18:58.535Z,17.04
2019-06-20T03:24:51.531Z,16.99
2019-06-20T03:27:24.118Z,16.94
2019-06-20T03:29:56.786Z,16.90
2019-06-20T03:32:29.625Z,16.87
2019-06-20T03:35:02.854Z,16.85
2019-06-20T03:37:36.294Z,16.86
2019-06-20T03:40:10.266Z,16.89
2019-06-20T03:42:43.216Z,16.89
2019-06-20T03:45:17.826Z,16.91
2019-06-20T03:47:51.726Z,16.91
2019-06-20T03:50:24.767Z,16.97
2019-06-20T03:53:01.433Z,16.96
2019-06-20T03:55:34.619Z,17.00
2019-06-20T03:58:06.940Z,17.00
2019-06-20T04:00:39.710Z,17.00
2019-06-20T04:03:12.647Z,17.02
2019-06-20T04:05:45.249Z,17.01
2019-06-20T04:08:17.648Z,17.00
2019-06-20T04:10:51.416Z,17.01
2019-06-20T04:13:24.103Z,17.05
2019-06-20T04:15:56.809Z,17.07
2019-06-20T04:18:29.704Z,17.08
2019-06-20T04:21:02.320Z,17.09
2019-06-20T04:23:34.874Z,17.09
2019-06-20T04:26:09.770Z,17.12
2019-06-20T04:28:42.227Z,17.14
2019-06-20T04:31:14.652Z,17.12
2019-06-20T04:33:47.550Z,17.16
2019-06-20T04:36:20.600Z,17.15
2019-06-20T04:38:53.092Z,17.14
2019-06-20T04:41:25.866Z,17.17
2019-06-20T04:43:58.981Z,17.15
2019-06-20T04:46:43.729Z,17.14
2019-06-20T04:49:19.620Z,17.13
2019-06-20T04:51:53.689Z,17.13
2019-06-20T04:54:26.520Z,17.13
2019-06-20T04:56:59.054Z,17.12
2019-06-20T04:59:31.452Z,17.11
2019-06-20T05:02:05.381Z,17.13
2019-06-20T05:04:37.975Z,17.14
2019-06-20T05:07:19.517Z,17.15
2019-06-20T05:09:52.132Z,17.17
2019-06-20T05:12:24.710Z,17.20
2019-06-20T05:14:57.339Z,17.25
2019-06-20T05:17:29.881Z,17.29
2019-06-20T05:20:02.349Z,17.31
2019-06-20T05:22:35.281Z,17.38
2019-06-20T05:25:08.463Z,17.39
2019-06-20T05:27:41.068Z,17.37
2019-06-20T05:30:16.206Z,17.37
2019-06-20T05:32:49.413Z,17.36
2019-06-20T05:35:21.977Z,17.41
2019-06-20T05:37:54.732Z,17.42
2019-06-20T05:40:27.485Z,17.45
2019-06-20T05:43:00.153Z,17.49
2019-06-20T05:45:32.845Z,17.52
2019-06-20T05:48:05.968Z,17.57
2019-06-20T05:50:39.611Z,17.66
2019-06-20T05:53:14.752Z,17.74
2019-06-20T05:55:48.049Z,17.77
2019-06-20T05:58:20.723Z,17.85
2019-06-20T06:00:54.090Z,17.89
2019-06-20T06:03:27.644Z,17.93
2019-06-20T06:06:00.224Z,17.96
2019-06-20T06:08:34.049Z,17.98
2019-06-20T06:11:08.308Z,17.94
2019-06-20T06:13:40.771Z,17.96
2019-06-20T06:16:25.724Z,17.95
2019-06-20T06:19:00.937Z,17.96
2019-06-20T06:21:33.470Z,17.99
2019-06-20T06:24:06.519Z,18.05
2019-06-20T06:26:39.055Z,18.05
2019-06-20T06:29:11.697Z,18.00
2019-06-20T06:31:45.499Z,17.93
2019-06-20T06:34:21.167Z,17.88
2019-06-20T06:36:54.964Z,17.89
2019-06-20T06:39:27.759Z,17.87
2019-06-20T06:42:01.390Z,17.85
2019-06-20T06:44:34.861Z,17.86
2019-06-20T06:47:07.643Z,17.93
2019-06-20T06:49:40.536Z,18.12
2019-06-20T06:52:13.007Z,18.33
2019-06-20T06:54:47.096Z,18.46
2019-06-20T06:57:19.613Z,18.59
2019-06-20T06:59:52.207Z,18.61
2019-06-20T07:02:25.068Z,18.67
2019-06-20T07:04:57.676Z,18.75
2019-06-20T07:07:30.322Z,18.76
2019-06-20T07:10:06.408Z,18.73
2019-06-20T07:12:39.326Z,18.79
2019-06-20T07:15:14.877Z,18.96
2019-06-20T07:17:47.912Z,19.24
2019-06-20T07:20:20.884Z,19.31
2019-06-20T07:22:53.964Z,19.38
2019-06-20T07:25:26.896Z,19.41
2019-06-20T07:28:00.095Z,19.36
2019-06-20T07:30:32.742Z,19.35
2019-06-20T07:33:06.007Z,19.46
2019-06-20T07:35:41.878Z,19.58
2019-06-20T07:38:16.041Z,19.68
2019-06-20T07:40:49.035Z,19.84
2019-06-20T07:43:21.844Z,20.07
2019-06-20T07:46:02.673Z,20.29
2019-06-20T07:48:36.359Z,20.38
2019-06-20T07:51:09.041Z,20.42
2019-06-20T07:53:42.065Z,20.62
2019-06-20T07:56:14.764Z,20.85
2019-06-20T07:58:47.248Z,21.05
2019-06-20T08:01:20.335Z,21.13
2019-06-20T08:03:53.546Z,21.00
2019-06-20T08:06:27.136Z,21.14
2019-06-20T08:09:00.311Z,21.75
2019-06-20T08:11:32.873Z,22.37
2019-06-20T08:14:05.704Z,22.34
2019-06-20T08:16:39.980Z,22.36
2019-06-20T08:19:12.585Z,22.06
2019-06-20T08:21:45.147Z,21.46
2019-06-20T08:24:18.730Z,21.04
2019-06-20T08:26:52.300Z,20.75
2019-06-20T08:29:25.849Z,20.61
2019-06-20T08:32:00.740Z,20.67
2019-06-20T08:34:34.652Z,20.86
2019-06-20T08:37:07.998Z,21.31
2019-06-20T08:39:42.893Z,22.17
2019-06-20T08:42:15.904Z,22.64
2019-06-20T08:44:49.474Z,22.53
2019-06-20T08:47:27.264Z,21.92
2019-06-20T08:50:01.400Z,21.45
2019-06-20T08:52:34.339Z,21.18
2019-06-20T08:55:08.038Z,21.27
2019-06-20T08:57:40.609Z,21.54
2019-06-20T09:00:15.716Z,21.68
2019-06-20T09:02:48.655Z,22.05
2019-06-20T09:05:22.062Z,21.94
2019-06-20T09:07:55.364Z,21.73
2019-06-20T09:10:39.015Z,21.93
2019-06-20T09:13:12.888Z,21.83
2019-06-20T09:15:45.520Z,22.29
2019-06-20T09:18:18.522Z,23.17
2019-06-20T09:20:52.678Z,23.35
2019-06-20T09:23:25.730Z,23.82
2019-06-20T09:25:59.564Z,23.48
2019-06-20T09:28:35.261Z,22.80
2019-06-20T09:31:07.942Z,22.32
2019-06-20T09:33:40.801Z,21.95
2019-06-20T09:36:13.899Z,21.86
2019-06-20T09:38:46.554Z,21.92
2019-06-20T09:41:20.722Z,21.82
2019-06-20T09:43:54.290Z,21.95
2019-06-20T09:46:27.006Z,22.37
2019-06-20T09:49:02.684Z,23.09
2019-06-20T09:51:42.089Z,23.58
2019-06-20T09:54:21.508Z,23.47
2019-06-20T09:57:04.697Z,23.20
2019-06-20T10:00:37.609Z,23.43
2019-06-20T10:03:38.402Z,24.13
2019-06-20T10:06:14.328Z,24.11
2019-06-20T10:08:49.984Z,24.42
2019-06-20T10:11:22.767Z,24.92
2019-06-20T10:13:58.524Z,25.09
2019-06-20T10:16:45.033Z,24.28
2019-06-20T10:19:19.311Z,23.44
2019-06-20T10:21:52.211Z,22.91
2019-06-20T10:24:24.813Z,22.46
2019-06-20T10:26:58.007Z,22.56
2019-06-20T10:29:31.695Z,22.53
2019-06-20T10:32:04.697Z,22.81
2019-06-20T10:34:37.629Z,23.49
2019-06-20T10:37:10.668Z,24.54
2019-06-20T10:39:44.511Z,25.75
2019-06-20T10:42:19.160Z,25.72
2019-06-20T10:44:52.239Z,24.97
2019-06-20T10:47:33.654Z,24.60
2019-06-20T10:50:10.355Z,24.88
2019-06-20T10:52:43.663Z,25.47
2019-06-20T10:55:16.640Z,25.94
2019-06-20T10:57:50.073Z,26.14
2019-06-20T11:00:32.029Z,26.47
2019-06-20T11:03:04.806Z,26.46
2019-06-20T11:05:39.065Z,26.50
2019-06-20T11:08:13.128Z,26.44
2019-06-20T11:10:47.194Z,26.30
2019-06-20T11:13:20.416Z,26.17
2019-06-20T11:16:11.166Z,25.88
2019-06-20T11:18:44.128Z,26.03
2019-06-20T11:21:16.785Z,25.85
2019-06-20T11:23:50.622Z,26.19
2019-06-20T11:26:23.509Z,26.61
2019-06-20T11:28:56.149Z,26.83
2019-06-20T11:31:31.126Z,26.51
2019-06-20T11:34:06.359Z,26.14
2019-06-20T11:36:42.432Z,25.71
2019-06-20T11:39:15.073Z,25.66
2019-06-20T11:41:48.632Z,25.64
2019-06-20T11:44:26.434Z,25.26
2019-06-20T11:47:00.832Z,24.99
2019-06-20T11:52:49.883Z,24.45
2019-06-20T11:55:26.894Z,24.30
2019-06-20T11:58:05.591Z,24.11
2019-06-20T12:01:02.711Z,24.03
2019-06-20T12:03:44.598Z,24.26
2019-06-20T12:06:22.272Z,24.37
2019-06-20T12:08:56.541Z,24.33
2019-06-20T12:11:31.017Z,24.19
2019-06-20T12:14:07.171Z,23.92
2019-06-20T12:16:42.760Z,23.79
2019-06-20T12:19:17.886Z,23.67
2019-06-20T12:21:54.332Z,23.59
2019-06-20T12:24:29.246Z,23.38
2019-06-20T12:27:02.126Z,23.33
2019-06-20T12:29:34.633Z,23.28
2019-06-20T12:32:10.222Z,23.21
2019-06-20T12:34:44.564Z,23.16
2019-06-20T12:37:23.259Z,23.16
2019-06-20T12:40:03.738Z,23.26
2019-06-20T12:42:41.830Z,23.41
2019-06-20T12:45:24.300Z,23.46
2019-06-20T12:48:01.049Z,23.49
2019-06-20T12:50:36.544Z,23.51
2019-06-20T12:53:14.095Z,23.30
2019-06-20T12:55:50.790Z,23.27
2019-06-20T12:58:29.011Z,23.10
2019-06-20T13:03:55.544Z,22.46
2019-06-20T13:06:32.399Z,22.24
2019-06-20T13:09:09.839Z,22.16
2019-06-20T13:11:42.838Z,22.18
2019-06-20T13:14:16.027Z,22.27
2019-06-20T13:16:52.780Z,22.26
2019-06-20T13:19:25.886Z,22.26
2019-06-20T13:21:58.485Z,22.24
2019-06-20T13:24:35.721Z,22.21
2019-06-20T13:27:20.362Z,22.01
2019-06-20T13:30:06.143Z,21.83
2019-06-20T13:32:54.697Z,21.70
2019-06-20T13:35:34.755Z,21.54
2019-06-20T13:38:14.356Z,21.43
2019-06-20T13:40:47.368Z,21.37
2019-06-20T13:43:20.194Z,21.31
2019-06-20T13:46:10.592Z,21.28
2019-06-20T13:48:45.780Z,21.31
2019-06-20T13:51:18.815Z,21.34
2019-06-20T13:53:54.968Z,21.33
2019-06-20T13:56:28.227Z,21.22
2019-06-20T13:59:00.713Z,21.04
2019-06-20T14:01:34.413Z,20.84
2019-06-20T14:04:10.499Z,20.57
2019-06-20T14:06:45.448Z,20.21
2019-06-20T14:09:18.492Z,19.94
2019-06-20T14:11:54.960Z,19.85
2019-06-20T14:14:28.556Z,19.75
2019-06-20T14:17:02.378Z,19.62
2019-06-20T14:19:35.459Z,19.50
2019-06-20T14:22:10.221Z,19.48
2019-06-20T14:24:45.047Z,19.27
2019-06-20T14:27:18.072Z,19.19
2019-06-20T14:29:52.004Z,19.24
2019-06-20T14:32:30.602Z,19.35
2019-06-20T14:35:03.814Z,19.49
2019-06-20T14:37:37.000Z,19.60
2019-06-20T14:40:12.446Z,19.70
2019-06-20T14:42:45.995Z,19.78
2019-06-20T14:45:20.354Z,19.81
2019-06-20T14:47:52.949Z,19.81
2019-06-20T14:50:26.173Z,19.76
2019-06-20T14:52:59.129Z,19.71
2019-06-20T14:55:32.648Z,19.71
2019-06-20T14:58:08.318Z,19.64
2019-06-20T15:01:09.389Z,19.59
2019-06-20T15:03:42.176Z,19.55
2019-06-20T15:06:15.284Z,19.65
2019-06-20T15:08:49.537Z,19.60
2019-06-20T15:11:23.753Z,19.50
2019-06-20T15:13:56.416Z,19.37
2019-06-20T15:16:29.003Z,19.25
2019-06-20T15:19:02.233Z,19.05
2019-06-20T15:21:35.221Z,18.95
2019-06-20T15:24:07.706Z,18.90
2019-06-20T15:26:41.999Z,18.93
2019-06-20T15:29:16.396Z,18.97
2019-06-20T15:31:54.901Z,19.02
2019-06-20T15:34:43.981Z,19.17
2019-06-20T15:37:16.711Z,19.34
2019-06-20T15:39:51.387Z,19.46
2019-06-20T15:42:26.478Z,19.67
2019-06-20T15:45:01.605Z,19.71
2019-06-20T15:47:35.784Z,19.86
2019-06-20T15:50:10.522Z,19.94
2019-06-20T15:52:43.820Z,19.93
2019-06-20T15:55:20.899Z,19.93
2019-06-20T15:57:54.322Z,19.96
2019-06-20T16:00:28.707Z,19.94
2019-06-20T16:03:09.831Z,19.87
2019-06-20T16:05:49.009Z,19.96
2019-06-20T16:08:21.668Z,19.97
2019-06-20T16:10:54.624Z,19.92
2019-06-20T16:13:27.399Z,19.93
2019-06-20T16:16:01.215Z,19.95
2019-06-20T16:18:33.808Z,20.05
2019-06-20T16:21:09.633Z,20.11
2019-06-20T16:23:43.180Z,20.25
2019-06-20T16:26:15.988Z,20.35
2019-06-20T16:28:48.981Z,20.45
2019-06-20T16:31:26.703Z,20.58
2019-06-20T16:33:59.981Z,20.64
2019-06-20T16:36:32.757Z,20.58
2019-06-20T16:39:09.285Z,20.55
2019-06-20T16:41:41.942Z,20.64
2019-06-20T16:44:15.170Z,21.30
2019-06-20T16:46:48.064Z,21.90
2019-06-20T16:49:20.790Z,22.01
2019-06-20T16:51:53.883Z,21.95
2019-06-20T16:54:27.075Z,21.79
2019-06-20T16:56:59.687Z,21.53
2019-06-20T16:59:33.297Z,21.42
2019-06-20T17:02:06.460Z,21.24
2019-06-20T17:04:39.902Z,21.20
2019-06-20T17:07:12.472Z,21.42
2019-06-20T17:09:46.541Z,21.49
2019-06-20T17:12:19.374Z,21.34
2019-06-20T17:14:54.603Z,21.21
2019-06-20T17:17:28.011Z,21.02
2019-06-20T17:20:00.738Z,20.89
2019-06-20T17:22:34.371Z,20.85
2019-06-20T17:25:07.558Z,20.77
2019-06-20T17:27:40.350Z,20.89
2019-06-20T17:30:17.727Z,21.00
2019-06-20T17:32:50.972Z,20.91
2019-06-20T17:35:23.841Z,20.83
2019-06-20T17:37:56.922Z,20.78
2019-06-20T17:40:31.237Z,20.69
2019-06-20T17:43:05.414Z,20.35
2019-06-20T17:45:38.729Z,20.08
2019-06-20T17:48:12.795Z,19.77
2019-06-20T17:50:49.288Z,19.58
2019-06-20T17:53:22.577Z,19.52
2019-06-20T17:55:56.500Z,19.48
2019-06-20T17:58:29.561Z,19.31
2019-06-20T18:01:02.365Z,19.21
2019-06-20T18:03:36.014Z,19.10
2019-06-20T18:06:09.787Z,19.00
2019-06-20T18:08:42.637Z,18.89
2019-06-20T18:11:16.491Z,18.71
2019-06-20T18:13:50.038Z,18.52
2019-06-20T18:16:25.397Z,18.42
2019-06-20T18:19:01.633Z,18.31
2019-06-20T18:21:34.307Z,18.16
2019-06-20T18:24:07.288Z,17.97
2019-06-20T18:26:40.423Z,17.78
2019-06-20T18:29:14.350Z,17.70
2019-06-20T18:31:47.802Z,17.57
2019-06-20T18:34:29.929Z,17.51
2019-06-20T18:37:03.278Z,17.46
2019-06-20T18:39:36.342Z,17.42
2019-06-20T18:42:09.051Z,17.45
2019-06-20T18:44:41.856Z,17.39
2019-06-20T18:47:14.533Z,17.34
2019-06-20T18:49:47.969Z,17.29
2019-06-20T18:52:20.622Z,17.21
2019-06-20T18:54:54.257Z,17.15
2019-06-20T18:57:26.827Z,17.12
2019-06-20T18:59:59.731Z,17.07
2019-06-20T19:02:32.472Z,17.02
2019-06-20T19:05:07.166Z,16.96
2019-06-20T19:07:39.914Z,16.85
2019-06-20T19:10:19.563Z,16.82
2019-06-20T19:12:52.642Z,16.80
2019-06-20T19:15:25.748Z,16.70
2019-06-20T19:17:59.351Z,16.59
2019-06-20T19:20:32.442Z,16.52
2019-06-20T19:23:05.196Z,16.51
2019-06-20T19:25:37.797Z,16.49
2019-06-20T19:28:11.089Z,16.43
2019-06-20T19:30:49.774Z,16.40
2019-06-20T19:33:22.769Z,16.42
2019-06-20T19:35:55.495Z,16.41
2019-06-20T19:38:28.176Z,16.40
2019-06-20T19:41:00.872Z,16.47
2019-06-20T19:43:33.479Z,16.44
2019-06-20T19:46:06.507Z,16.41
2019-06-20T19:48:39.288Z,16.35
2019-06-20T19:51:12.013Z,16.29
2019-06-20T19:53:45.983Z,16.23
2019-06-20T19:56:18.875Z,16.14
2019-06-20T19:58:53.732Z,16.03
2019-06-20T20:01:26.781Z,15.85
2019-06-20T20:03:59.399Z,15.72
2019-06-20T20:06:32.243Z,15.66
2019-06-20T20:09:06.528Z,15.54
2019-06-20T20:11:39.589Z,15.47
2019-06-20T20:14:12.178Z,15.40
2019-06-20T20:16:46.930Z,15.41
2019-06-20T20:19:19.523Z,15.42
2019-06-20T20:21:53.459Z,15.42
2019-06-20T20:24:26.404Z,15.41
2019-06-20T20:26:59.122Z,15.43
2019-06-20T20:29:31.641Z,15.39
2019-06-20T20:32:04.522Z,15.32
2019-06-20T20:34:37.407Z,15.22
2019-06-20T20:37:10.172Z,15.12
2019-06-20T20:39:42.719Z,14.99
2019-06-20T20:42:17.736Z,14.90
2019-06-20T20:44:51.204Z,14.81
2019-06-20T20:47:24.333Z,14.76
2019-06-20T20:49:57.475Z,14.72
2019-06-20T20:52:30.460Z,14.62
2019-06-20T20:55:03.301Z,14.54
2019-06-20T20:57:36.518Z,14.51
2019-06-20T21:00:09.460Z,14.50
2019-06-20T21:02:44.765Z,14.42
2019-06-20T21:05:17.392Z,14.34
2019-06-20T21:07:50.376Z,14.31
2019-06-20T21:10:24.088Z,14.31
2019-06-20T21:12:57.030Z,14.39
2019-06-20T21:15:29.869Z,14.36
2019-06-20T21:18:02.690Z,14.45
2019-06-20T21:20:35.801Z,14.52
2019-06-20T21:23:08.593Z,14.69
2019-06-20T21:25:41.255Z,14.78
2019-06-20T21:28:13.845Z,14.84
2019-06-20T21:30:46.565Z,14.83
2019-06-20T21:33:19.260Z,14.80
2019-06-20T21:36:07.521Z,14.72
2019-06-20T21:38:41.719Z,14.62
2019-06-20T21:41:14.319Z,14.53
2019-06-20T21:43:47.072Z,14.42
2019-06-20T21:46:19.655Z,14.42
2019-06-20T21:48:53.577Z,14.45
2019-06-20T21:51:26.232Z,14.46
2019-06-20T21:53:59.188Z,14.48
2019-06-20T21:56:31.906Z,14.43
2019-06-20T21:59:04.678Z,14.37
2019-06-20T22:01:37.904Z,14.29
2019-06-20T22:04:11.147Z,14.33
2019-06-20T22:06:43.785Z,14.32
2019-06-20T22:09:16.332Z,14.26
2019-06-20T22:11:49.453Z,14.18
2019-06-20T22:14:22.392Z,14.11
2019-06-20T22:16:54.944Z,14.03
2019-06-20T22:19:27.580Z,14.03
2019-06-20T22:22:00.245Z,14.08
2019-06-20T22:24:32.984Z,14.18
2019-06-20T22:27:05.625Z,14.16
2019-06-20T22:29:38.333Z,14.13
2019-06-20T22:32:10.824Z,14.11
2019-06-20T22:34:43.409Z,14.09
2019-06-20T22:37:16.218Z,14.02
2019-06-20T22:39:49.304Z,14.06
2019-06-20T22:42:21.820Z,14.08
2019-06-20T22:44:54.398Z,14.08
2019-06-20T22:47:26.825Z,14.19
2019-06-20T22:50:01.043Z,14.26
2019-06-20T22:52:34.451Z,14.23
2019-06-20T22:55:07.694Z,14.10
2019-06-20T22:57:40.346Z,13.99
2019-06-20T23:00:15.900Z,13.87
2019-06-20T23:02:48.470Z,13.76
2019-06-20T23:05:21.538Z,13.72
2019-06-20T23:07:54.271Z,13.68
2019-06-20T23:10:26.803Z,13.74
2019-06-20T23:12:59.411Z,13.68
2019-06-20T23:15:32.112Z,13.63
2019-06-20T23:18:04.998Z,13.56
2019-06-20T23:20:37.648Z,13.56
2019-06-20T23:23:11.581Z,13.62
2019-06-20T23:25:49.122Z,13.65
2019-06-20T23:28:22.478Z,13.73
2019-06-20T23:30:55.962Z,13.78
2019-06-20T23:33:28.418Z,13.79
2019-06-20T23:36:01.125Z,13.78
2019-06-20T23:38:33.599Z,13.83
2019-06-20T23:41:06.236Z,13.86
2019-06-20T23:43:38.799Z,13.84
2019-06-20T23:46:11.532Z,13.79
2019-06-20T23:48:43.979Z,13.70
2019-06-20T23:51:25.407Z,13.59
2019-06-20T23:53:58.429Z,13.40
2019-06-20T23:56:30.943Z,13.23
2019-06-20T23:59:03.547Z,13.25
